createdAt,value
2022-10-11T00:00:44.829Z,99.99
2022-10-11T00:03:14.521Z,99.99
2022-10-11T00:05:44.042Z,99.99
2022-10-11T00:08:13.500Z,99.99
2022-10-11T00:10:41.606Z,99.99
2022-10-11T00:13:09.413Z,99.99
2022-10-11T00:15:39.312Z,99.99
2022-10-11T00:18:07.582Z,99.99
2022-10-11T00:20:35.373Z,99.99
2022-10-11T00:23:03.117Z,99.99
2022-10-11T00:25:30.874Z,99.99
2022-10-11T00:27:58.566Z,99.99
2022-10-11T00:30:26.406Z,99.99
2022-10-11T00:32:54.215Z,99.99
2022-10-11T00:35:22.073Z,99.99
2022-10-11T00:37:49.946Z,99.99
2022-10-11T00:40:20.450Z,99.99
2022-10-11T00:42:48.342Z,99.99
2022-10-11T00:45:57.343Z,99.99
2022-10-11T00:48:37.878Z,99.99
2022-10-11T00:51:28.551Z,99.99
2022-10-11T00:53:56.462Z,99.99
2022-10-11T00:56:28.631Z,99.99
2022-10-11T00:58:57.990Z,99.99
2022-10-11T01:01:26.252Z,99.99
2022-10-11T01:03:54.687Z,99.99
2022-10-11T01:06:22.643Z,99.99
2022-10-11T01:08:52.081Z,99.99
2022-10-11T01:11:23.920Z,99.99
2022-10-11T01:14:00.693Z,99.99
2022-10-11T01:17:02.649Z,99.99
2022-10-11T01:19:59.203Z,99.99
2022-10-11T01:23:01.009Z,99.99
2022-10-11T01:26:07.627Z,99.99
2022-10-11T01:28:48.850Z,99.99
2022-10-11T01:31:28.611Z,99.99
2022-10-11T01:34:11.591Z,99.99
2022-10-11T01:36:51.351Z,99.99
2022-10-11T01:39:31.081Z,99.99
2022-10-11T01:42:02.347Z,99.99
2022-10-11T01:44:31.913Z,99.99
2022-10-11T01:46:59.676Z,99.99
2022-10-11T01:49:27.440Z,99.99
2022-10-11T01:51:58.118Z,99.99
2022-10-11T01:55:08.104Z,99.99
2022-10-11T01:57:52.942Z,99.99
2022-10-11T02:00:28.047Z,99.99
2022-10-11T02:03:29.127Z,99.99
2022-10-11T02:06:12.331Z,99.99
2022-10-11T02:09:08.229Z,99.99
2022-10-11T02:11:37.752Z,99.99
2022-10-11T02:14:32.588Z,99.99
2022-10-11T02:17:08.763Z,99.99
2022-10-11T02:19:41.589Z,99.99
2022-10-11T02:22:19.288Z,99.99
2022-10-11T02:24:51.703Z,99.99
2022-10-11T02:27:23.553Z,99.99
2022-10-11T02:29:53.443Z,99.99
2022-10-11T02:32:23.380Z,99.99
2022-10-11T02:34:57.575Z,99.99
2022-10-11T02:37:28.205Z,99.99
2022-10-11T02:40:08.547Z,99.99
2022-10-11T02:42:59.566Z,99.99
2022-10-11T02:45:33.117Z,99.99
2022-10-11T02:48:01.468Z,99.99
2022-10-11T02:50:29.461Z,99.99
2022-10-11T02:52:57.226Z,99.99
2022-10-11T02:55:25.355Z,99.99
2022-10-11T02:57:53.188Z,99.99
2022-10-11T03:00:21.084Z,99.99
2022-10-11T03:02:48.846Z,99.99
2022-10-11T03:05:16.685Z,99.99
2022-10-11T03:07:44.520Z,99.99
2022-10-11T03:10:12.445Z,99.99
2022-10-11T03:12:40.438Z,99.99
2022-10-11T03:15:08.555Z,99.99
2022-10-11T03:17:37.276Z,99.99
2022-10-11T03:20:06.542Z,99.99
2022-10-11T03:22:34.566Z,99.99
2022-10-11T03:25:04.452Z,99.99
2022-10-11T03:27:33.372Z,99.99
2022-10-11T03:30:01.544Z,99.99
2022-10-11T03:32:29.815Z,99.99
2022-10-11T03:34:57.740Z,99.99
2022-10-11T03:37:25.559Z,99.99
2022-10-11T03:39:53.328Z,99.99
2022-10-11T03:42:21.294Z,99.99
2022-10-11T03:44:51.721Z,99.99
2022-10-11T03:47:19.990Z,99.99
2022-10-11T03:49:47.857Z,99.99
2022-10-11T03:52:15.919Z,99.99
2022-10-11T03:54:43.667Z,99.99
2022-10-11T03:57:11.530Z,99.99
2022-10-11T03:59:39.298Z,99.99
2022-10-11T04:02:07.104Z,99.99
2022-10-11T04:04:35.286Z,99.99
2022-10-11T04:07:03.237Z,99.99
2022-10-11T04:09:31.174Z,99.99
2022-10-11T04:11:59.247Z,99.99
2022-10-11T04:14:27.499Z,99.99
2022-10-11T04:16:58.396Z,99.99
2022-10-11T04:19:28.338Z,99.99
2022-10-11T04:21:56.102Z,99.99
2022-10-11T04:24:23.883Z,99.99
2022-10-11T04:26:51.632Z,99.99
2022-10-11T04:29:19.411Z,99.99
2022-10-11T04:31:47.327Z,99.99
2022-10-11T04:34:15.283Z,99.99
2022-10-11T04:36:47.549Z,99.99
2022-10-11T04:39:17.594Z,99.99
2022-10-11T04:41:46.875Z,99.99
2022-10-11T04:44:14.701Z,99.99
2022-10-11T04:46:42.607Z,99.99
2022-10-11T04:49:10.474Z,99.99
2022-10-11T04:51:38.250Z,99.99
2022-10-11T04:54:06.061Z,99.99
2022-10-11T04:56:33.982Z,99.99
2022-10-11T04:59:01.770Z,99.99
2022-10-11T05:01:29.603Z,99.99
2022-10-11T05:03:57.364Z,99.99
2022-10-11T05:06:25.136Z,99.99
2022-10-11T05:08:52.949Z,99.99
2022-10-11T05:11:21.023Z,99.99
2022-10-11T05:13:49.056Z,99.99
2022-10-11T05:16:17.518Z,99.99
2022-10-11T05:18:45.879Z,99.99
2022-10-11T05:21:28.245Z,99.99
2022-10-11T05:23:57.339Z,99.99
2022-10-11T05:26:29.250Z,99.99
2022-10-11T05:28:57.399Z,99.99
2022-10-11T05:31:25.552Z,99.99
2022-10-11T05:33:53.388Z,99.99
2022-10-11T05:36:21.476Z,99.99
2022-10-11T05:38:49.266Z,99.99
2022-10-11T05:41:17.847Z,99.99
2022-10-11T05:43:46.598Z,99.99
2022-10-11T05:46:14.845Z,99.99
2022-10-11T05:48:42.859Z,99.99
2022-10-11T05:51:12.281Z,99.99
2022-10-11T05:53:40.419Z,99.99
2022-10-11T05:56:19.653Z,99.99
2022-10-11T05:58:47.759Z,99.99
2022-10-11T06:01:24.467Z,99.99
2022-10-11T06:03:52.689Z,99.99
2022-10-11T06:06:20.835Z,99.99
2022-10-11T06:08:49.043Z,99.99
2022-10-11T06:11:22.709Z,99.99
2022-10-11T06:13:50.524Z,99.99
2022-10-11T06:16:18.350Z,99.99
2022-10-11T06:18:46.313Z,99.99
2022-10-11T06:21:15.402Z,99.99
2022-10-11T06:23:43.146Z,99.99
2022-10-11T06:26:11.847Z,99.99
2022-10-11T06:28:39.755Z,99.99
2022-10-11T06:31:07.710Z,99.99
2022-10-11T06:33:35.907Z,99.99
2022-10-11T06:36:13.242Z,99.99
2022-10-11T06:38:44.952Z,99.96
2022-10-11T06:41:22.842Z,99.42
2022-10-11T06:43:50.758Z,98.15
2022-10-11T06:46:20.987Z,96.87
2022-10-11T06:48:49.733Z,96.25
2022-10-11T06:51:20.209Z,95.71
2022-10-11T06:53:52.743Z,94.23
2022-10-11T06:56:20.543Z,92.64
2022-10-11T06:58:48.508Z,91.57
2022-10-11T07:01:19.134Z,89.81
2022-10-11T07:03:47.608Z,88.41
2022-10-11T07:06:20.605Z,89.01
2022-10-11T07:08:48.893Z,88.68
2022-10-11T07:11:19.875Z,89.73
2022-10-11T07:14:02.440Z,90.22
2022-10-11T07:16:30.337Z,91.46
2022-10-11T07:19:01.242Z,92.47
2022-10-11T07:21:30.646Z,91.27
2022-10-11T07:23:58.737Z,90.29
2022-10-11T07:26:27.276Z,89.72
2022-10-11T07:28:56.676Z,88.93
2022-10-11T07:31:26.503Z,88.44
2022-10-11T07:33:54.777Z,88.36
2022-10-11T07:36:23.295Z,87.88
2022-10-11T07:38:51.510Z,87.17
2022-10-11T07:41:19.687Z,87.58
2022-10-11T07:43:49.598Z,87.55
2022-10-11T07:46:18.696Z,87.21
2022-10-11T07:48:46.762Z,87.11
2022-10-11T07:51:18.473Z,88.21
2022-10-11T07:53:49.295Z,88.48
2022-10-11T07:56:19.928Z,88.60
2022-10-11T07:58:52.771Z,88.48
2022-10-11T08:01:21.288Z,88.37
2022-10-11T08:03:50.095Z,89.17
2022-10-11T08:06:21.384Z,89.30
2022-10-11T08:08:49.762Z,88.93
2022-10-11T08:11:21.703Z,88.27
2022-10-11T08:13:49.836Z,88.55
2022-10-11T08:16:18.176Z,88.14
2022-10-11T08:18:46.093Z,89.17
2022-10-11T08:21:16.139Z,88.59
2022-10-11T08:23:44.048Z,88.84
2022-10-11T08:26:12.433Z,89.51
2022-10-11T08:28:40.675Z,89.59
2022-10-11T08:31:10.861Z,88.79
2022-10-11T08:33:39.677Z,88.92
2022-10-11T08:36:10.583Z,88.84
2022-10-11T08:38:41.585Z,89.46
2022-10-11T08:41:39.717Z,88.70
2022-10-11T08:44:16.557Z,88.05
2022-10-11T08:46:50.311Z,88.47
2022-10-11T08:49:26.517Z,87.91
2022-10-11T08:52:04.427Z,87.78
2022-10-11T08:54:56.039Z,87.85
2022-10-11T08:57:27.590Z,87.38
2022-10-11T09:00:02.526Z,86.39
2022-10-11T09:03:06.795Z,84.63
2022-10-11T09:05:38.931Z,84.70
2022-10-11T09:08:24.191Z,84.24
2022-10-11T09:11:19.362Z,84.27
2022-10-11T09:14:11.584Z,83.43
2022-10-11T09:16:42.692Z,82.82
2022-10-11T09:19:22.642Z,82.85
2022-10-11T09:22:04.212Z,81.41
2022-10-11T09:25:04.151Z,80.43
2022-10-11T09:28:03.181Z,80.34
2022-10-11T09:30:32.576Z,79.55
2022-10-11T09:33:13.306Z,79.00
2022-10-11T09:35:46.235Z,77.58
2022-10-11T09:38:41.198Z,77.11
2022-10-11T09:41:17.378Z,74.89
2022-10-11T09:43:50.913Z,73.60
2022-10-11T09:46:29.572Z,73.54
2022-10-11T09:48:59.878Z,73.06
2022-10-11T09:51:28.862Z,73.71
2022-10-11T09:54:04.086Z,73.57
2022-10-11T09:56:34.347Z,72.66
2022-10-11T09:59:28.257Z,72.02
2022-10-11T10:02:14.438Z,71.22
2022-10-11T10:05:06.712Z,72.57
2022-10-11T10:07:37.139Z,72.32
2022-10-11T10:10:43.653Z,71.80
2022-10-11T10:13:25.608Z,70.68
2022-10-11T10:15:59.461Z,71.10
2022-10-11T10:19:01.337Z,70.03
2022-10-11T10:21:47.309Z,70.05
2022-10-11T10:24:40.932Z,69.24
2022-10-11T10:27:14.686Z,68.09
2022-10-11T10:29:42.855Z,68.82
2022-10-11T10:32:23.350Z,69.31
2022-10-11T10:35:14.033Z,69.50
2022-10-11T10:37:57.103Z,70.13
2022-10-11T10:40:50.299Z,69.94
2022-10-11T10:43:23.993Z,69.77
2022-10-11T10:45:57.982Z,69.38
2022-10-11T10:49:23.551Z,69.69
2022-10-11T10:52:05.982Z,67.93
2022-10-11T10:55:21.366Z,68.13
2022-10-11T10:58:02.393Z,68.25
2022-10-11T11:00:43.563Z,68.40
2022-10-11T11:03:29.417Z,67.62
2022-10-11T11:06:20.697Z,67.86
2022-10-11T11:09:27.743Z,67.44
2022-10-11T11:12:32.679Z,67.75
2022-10-11T11:15:12.054Z,67.39
2022-10-11T11:18:22.360Z,65.54
2022-10-11T11:21:05.824Z,66.74
2022-10-11T11:23:54.258Z,65.82
2022-10-11T11:26:44.140Z,66.91
2022-10-11T11:29:33.916Z,66.91
2022-10-11T11:32:13.475Z,66.28
2022-10-11T11:34:50.672Z,64.35
2022-10-11T11:37:38.621Z,63.15
2022-10-11T11:40:18.654Z,64.57
2022-10-11T11:42:59.327Z,66.24
2022-10-11T11:45:47.339Z,67.07
2022-10-11T11:48:26.371Z,66.58
2022-10-11T11:51:32.676Z,66.62
2022-10-11T11:54:41.671Z,66.91
2022-10-11T11:57:24.401Z,66.36
2022-10-11T12:00:23.310Z,67.11
2022-10-11T12:03:00.296Z,66.08
2022-10-11T12:05:32.283Z,64.61
2022-10-11T12:08:31.772Z,65.54
2022-10-11T12:11:18.277Z,63.60
2022-10-11T12:13:47.825Z,65.65
2022-10-11T12:16:22.398Z,65.53
2022-10-11T12:19:01.870Z,65.92
2022-10-11T12:21:33.059Z,65.44
2022-10-11T12:24:12.741Z,64.82
2022-10-11T12:26:46.713Z,65.40
2022-10-11T12:29:28.414Z,65.01
2022-10-11T12:32:00.082Z,64.40
2022-10-11T12:34:37.092Z,63.00
2022-10-11T12:37:30.950Z,62.79
2022-10-11T12:39:59.962Z,63.78
2022-10-11T12:42:36.398Z,62.64
2022-10-11T12:45:13.256Z,62.86
2022-10-11T12:47:49.628Z,63.05
2022-10-11T12:50:45.142Z,61.12
2022-10-11T12:53:30.750Z,60.71
2022-10-11T12:56:12.109Z,60.00
2022-10-11T12:58:46.219Z,61.76
2022-10-11T13:01:17.514Z,62.36
2022-10-11T13:03:51.134Z,62.77
2022-10-11T13:06:26.580Z,63.01
2022-10-11T13:09:06.992Z,63.94
2022-10-11T13:11:45.345Z,63.77
2022-10-11T13:14:20.915Z,63.92
2022-10-11T13:16:57.672Z,63.95
2022-10-11T13:19:26.001Z,63.81
2022-10-11T13:21:57.033Z,64.64
2022-10-11T13:24:27.664Z,64.11
2022-10-11T13:26:57.433Z,64.76
2022-10-11T13:29:33.678Z,64.30
2022-10-11T13:32:35.551Z,63.79
2022-10-11T13:35:14.636Z,64.83
2022-10-11T13:37:46.075Z,64.14
2022-10-11T13:40:20.349Z,64.40
2022-10-11T13:42:50.201Z,62.52
2022-10-11T13:45:24.077Z,63.35
2022-10-11T13:47:54.110Z,61.31
2022-10-11T13:50:34.375Z,59.83
2022-10-11T13:53:23.270Z,60.53
2022-10-11T13:55:57.068Z,59.82
2022-10-11T13:58:36.594Z,60.50
2022-10-11T14:01:17.787Z,60.34
2022-10-11T14:03:53.942Z,61.23
2022-10-11T14:06:22.114Z,60.00
2022-10-11T14:08:55.520Z,60.56
2022-10-11T14:11:36.165Z,61.34
2022-10-11T14:14:35.292Z,61.73
2022-10-11T14:17:05.909Z,62.78
2022-10-11T14:19:33.690Z,61.10
2022-10-11T14:22:01.739Z,62.26
2022-10-11T14:24:29.803Z,59.87
2022-10-11T14:26:59.011Z,59.87
2022-10-11T14:29:33.281Z,61.53
2022-10-11T14:32:08.130Z,62.02
2022-10-11T14:34:36.648Z,60.87
2022-10-11T14:37:04.500Z,62.42
2022-10-11T14:39:33.368Z,61.96
2022-10-11T14:42:01.433Z,62.88
2022-10-11T14:44:29.504Z,63.07
2022-10-11T14:46:57.295Z,62.88
2022-10-11T14:49:28.143Z,62.85
2022-10-11T14:51:58.155Z,63.25
2022-10-11T14:54:28.890Z,64.17
2022-10-11T14:57:00.025Z,64.44
2022-10-11T14:59:34.070Z,64.74
2022-10-11T15:02:02.480Z,63.99
2022-10-11T15:04:30.397Z,62.69
2022-10-11T15:06:59.069Z,62.99
2022-10-11T15:09:29.350Z,62.43
2022-10-11T15:11:57.691Z,61.60
2022-10-11T15:14:26.222Z,61.42
2022-10-11T15:16:56.098Z,62.53
2022-10-11T15:19:25.571Z,63.62
2022-10-11T15:21:56.353Z,62.97
2022-10-11T15:24:24.244Z,62.52
2022-10-11T15:26:51.953Z,63.96
2022-10-11T15:29:21.915Z,64.67
2022-10-11T15:31:50.290Z,63.25
2022-10-11T15:34:18.071Z,64.00
2022-10-11T15:36:46.100Z,65.44
2022-10-11T15:39:31.801Z,65.36
2022-10-11T15:41:59.692Z,65.91
2022-10-11T15:44:27.556Z,66.25
2022-10-11T15:46:55.560Z,66.40
2022-10-11T15:49:23.427Z,66.87
2022-10-11T15:52:00.303Z,67.15
2022-10-11T15:54:28.280Z,67.35
2022-10-11T15:56:56.150Z,67.10
2022-10-11T15:59:23.994Z,67.07
2022-10-11T16:01:51.783Z,67.16
2022-10-11T16:04:19.611Z,67.16
2022-10-11T16:06:47.547Z,67.89
2022-10-11T16:09:15.519Z,69.30
2022-10-11T16:11:43.486Z,69.93
2022-10-11T16:14:11.730Z,69.78
2022-10-11T16:16:39.705Z,70.10
2022-10-11T16:19:07.488Z,70.53
2022-10-11T16:21:35.316Z,70.78
2022-10-11T16:24:03.218Z,71.49
2022-10-11T16:26:32.129Z,72.14
2022-10-11T16:29:00.590Z,72.77
2022-10-11T16:31:29.000Z,73.24
2022-10-11T16:33:58.808Z,73.69
2022-10-11T16:36:35.483Z,73.93
2022-10-11T16:39:16.664Z,74.48
2022-10-11T16:41:45.995Z,75.27
2022-10-11T16:44:17.121Z,75.37
2022-10-11T16:46:54.819Z,75.74
2022-10-11T16:49:26.769Z,76.18
2022-10-11T16:51:57.392Z,76.70
2022-10-11T16:54:27.625Z,77.27
2022-10-11T16:56:56.649Z,77.54
2022-10-11T16:59:26.214Z,79.23
2022-10-11T17:01:57.891Z,79.24
2022-10-11T17:04:29.021Z,80.28
2022-10-11T17:06:58.621Z,80.04
2022-10-11T17:09:28.155Z,80.60
2022-10-11T17:11:59.530Z,81.49
2022-10-11T17:14:28.590Z,82.60
2022-10-11T17:16:56.978Z,82.03
2022-10-11T17:19:25.123Z,81.82
2022-10-11T17:21:53.391Z,81.82
2022-10-11T17:24:21.863Z,81.87
2022-10-11T17:26:50.375Z,81.41
2022-10-11T17:29:18.666Z,81.44
2022-10-11T17:31:49.369Z,81.56
2022-10-11T17:34:17.952Z,81.81
2022-10-11T17:36:46.130Z,81.88
2022-10-11T17:39:17.185Z,82.37
2022-10-11T17:41:46.082Z,82.18
2022-10-11T17:44:17.491Z,83.26
2022-10-11T17:46:45.805Z,82.74
2022-10-11T17:49:14.090Z,83.23
2022-10-11T17:51:42.548Z,83.52
2022-10-11T17:54:12.938Z,84.07
2022-10-11T17:56:42.006Z,84.47
2022-10-11T17:59:17.095Z,84.52
2022-10-11T18:01:45.381Z,84.54
2022-10-11T18:04:16.815Z,84.66
2022-10-11T18:06:46.469Z,84.78
2022-10-11T18:09:18.705Z,85.00
2022-10-11T18:11:47.715Z,85.44
2022-10-11T18:14:16.297Z,85.97
2022-10-11T18:16:53.193Z,86.27
2022-10-11T18:19:21.508Z,86.38
2022-10-11T18:21:49.406Z,87.11
2022-10-11T18:24:18.117Z,87.37
2022-10-11T18:26:46.775Z,87.35
2022-10-11T18:29:14.977Z,87.64
2022-10-11T18:31:42.905Z,88.27
2022-10-11T18:34:13.842Z,88.54
2022-10-11T18:36:41.885Z,88.99
2022-10-11T18:39:13.465Z,89.68
2022-10-11T18:41:44.602Z,89.85
2022-10-11T18:44:14.911Z,89.99
2022-10-11T18:46:44.412Z,90.12
2022-10-11T18:49:13.448Z,90.29
2022-10-11T18:51:42.448Z,90.52
2022-10-11T18:54:15.334Z,90.84
2022-10-11T18:56:46.637Z,91.06
2022-10-11T18:59:14.630Z,92.04
2022-10-11T19:01:44.828Z,92.48
2022-10-11T19:04:15.887Z,92.44
2022-10-11T19:06:49.603Z,92.69
2022-10-11T19:09:24.581Z,92.54
2022-10-11T19:11:54.855Z,92.64
2022-10-11T19:14:25.926Z,92.79
2022-10-11T19:16:54.683Z,92.97
2022-10-11T19:19:30.581Z,93.69
2022-10-11T19:22:00.901Z,93.59
2022-10-11T19:24:30.276Z,93.71
2022-10-11T19:27:02.563Z,93.96
2022-10-11T19:29:32.394Z,94.05
2022-10-11T19:32:03.589Z,94.58
2022-10-11T19:34:32.829Z,94.73
2022-10-11T19:37:03.427Z,94.75
2022-10-11T19:39:31.940Z,94.76
2022-10-11T19:42:00.893Z,94.77
2022-10-11T19:44:28.967Z,95.01
2022-10-11T19:47:01.426Z,95.36
2022-10-11T19:49:32.625Z,95.87
2022-10-11T19:52:01.293Z,95.82
2022-10-11T19:54:29.528Z,95.93
2022-10-11T19:56:58.275Z,96.00
2022-10-11T19:59:28.103Z,96.25
2022-10-11T20:01:56.114Z,96.31
2022-10-11T20:04:51.167Z,96.24
2022-10-11T20:07:13.353Z,96.20
2022-10-11T20:09:41.857Z,96.32
2022-10-11T20:12:09.727Z,96.54
2022-10-11T20:14:37.686Z,96.55
2022-10-11T20:17:05.640Z,96.86
2022-10-11T20:19:33.640Z,97.43
2022-10-11T20:22:05.258Z,97.36
2022-10-11T20:24:36.751Z,97.40
2022-10-11T20:27:05.593Z,97.51
2022-10-11T20:29:33.591Z,97.76
2022-10-11T20:32:01.509Z,97.61
2022-10-11T20:34:29.499Z,97.64
2022-10-11T20:36:57.854Z,97.68
2022-10-11T20:39:26.049Z,97.64
2022-10-11T20:41:54.006Z,97.69
2022-10-11T20:44:22.136Z,97.74
2022-10-11T20:46:50.120Z,97.65
2022-10-11T20:49:20.000Z,97.75
2022-10-11T20:51:48.048Z,97.55
2022-10-11T20:54:16.359Z,97.76
2022-10-11T20:56:44.222Z,98.19
2022-10-11T20:59:12.187Z,98.26
2022-10-11T21:01:41.624Z,98.35
2022-10-11T21:04:17.244Z,98.32
2022-10-11T21:06:45.520Z,98.18
2022-10-11T21:09:16.365Z,98.28
2022-10-11T21:11:45.156Z,98.40
2022-10-11T21:14:13.455Z,98.43
2022-10-11T21:16:41.929Z,98.22
2022-10-11T21:19:14.214Z,98.17
2022-10-11T21:21:43.236Z,98.24
2022-10-11T21:24:11.938Z,98.23
2022-10-11T21:26:40.331Z,98.26
2022-10-11T21:29:08.880Z,98.26
2022-10-11T21:31:36.885Z,98.36
2022-10-11T21:34:06.642Z,98.56
2022-10-11T21:36:34.811Z,98.80
2022-10-11T21:39:02.924Z,98.65
2022-10-11T21:41:30.936Z,98.71
2022-10-11T21:44:00.687Z,98.65
2022-10-11T21:47:04.864Z,98.64
2022-10-11T21:49:19.247Z,98.57
2022-10-11T21:51:47.331Z,98.61
2022-10-11T21:54:15.429Z,98.63
2022-10-11T21:56:43.434Z,98.70
2022-10-11T21:59:12.598Z,98.70
2022-10-11T22:01:41.272Z,98.74
2022-10-11T22:04:11.379Z,98.80
2022-10-11T22:06:39.862Z,98.94
2022-10-11T22:09:08.781Z,98.94
2022-10-11T22:11:37.117Z,98.87
2022-10-11T22:14:05.661Z,99.07
2022-10-11T22:16:34.667Z,99.08
2022-10-11T22:19:04.110Z,99.20
2022-10-11T22:21:31.937Z,99.07
2022-10-11T22:23:59.944Z,98.97
2022-10-11T22:26:30.820Z,98.90
2022-10-11T22:29:00.342Z,98.98
2022-10-11T22:31:28.669Z,99.01
2022-10-11T22:33:58.604Z,99.03
2022-10-11T22:36:27.781Z,99.16
2022-10-11T22:38:56.055Z,99.12
2022-10-11T22:41:24.130Z,99.62
2022-10-11T22:43:52.220Z,99.44
2022-10-11T22:46:19.989Z,99.63
2022-10-11T22:48:47.898Z,99.65
2022-10-11T22:51:15.672Z,99.50
2022-10-11T22:53:43.642Z,99.50
2022-10-11T22:56:11.676Z,99.65
2022-10-11T22:58:39.569Z,99.59
2022-10-11T23:01:13.223Z,99.57
2022-10-11T23:03:41.159Z,99.47
2022-10-11T23:06:09.299Z,99.52
2022-10-11T23:08:37.096Z,99.51
2022-10-11T23:11:07.047Z,99.59
2022-10-11T23:13:36.085Z,99.66
2022-10-11T23:16:09.558Z,99.77
2022-10-11T23:18:38.338Z,99.80
2022-10-11T23:21:06.937Z,99.78
2022-10-11T23:23:36.468Z,99.69
2022-10-11T23:26:10.675Z,99.71
2022-10-11T23:28:38.888Z,99.67
2022-10-11T23:31:08.598Z,99.84
2022-10-11T23:33:36.682Z,99.91
2022-10-11T23:36:05.195Z,99.89
2022-10-11T23:38:33.071Z,99.99
2022-10-11T23:41:00.845Z,99.99
2022-10-11T23:43:28.681Z,99.99
2022-10-11T23:45:57.264Z,99.99
2022-10-11T23:48:25.134Z,99.98
2022-10-11T23:50:53.012Z,99.99
2022-10-11T23:53:20.923Z,99.99
2022-10-11T23:55:48.651Z,99.99
2022-10-11T23:58:16.395Z,99.99
